createdAt,value
2023-05-16T00:00:45.665Z,0.00
2023-05-16T00:01:45.721Z,0.00
2023-05-16T00:02:45.738Z,0.00
2023-05-16T00:03:45.793Z,0.00
2023-05-16T00:04:45.610Z,0.00
2023-05-16T00:05:45.603Z,0.00
2023-05-16T00:06:45.593Z,0.00
2023-05-16T00:07:45.570Z,0.00
2023-05-16T00:08:45.578Z,0.00
2023-05-16T00:09:45.563Z,0.00
2023-05-16T00:10:45.560Z,0.00
2023-05-16T00:11:45.526Z,0.00
2023-05-16T00:12:45.535Z,0.00
2023-05-16T00:13:45.499Z,0.00
2023-05-16T00:14:45.531Z,0.00
2023-05-16T00:15:45.484Z,0.00
2023-05-16T00:16:45.527Z,0.00
2023-05-16T00:17:45.505Z,0.00
2023-05-16T00:18:45.703Z,0.00
2023-05-16T00:19:45.444Z,0.00
2023-05-16T00:20:45.452Z,0.00
2023-05-16T00:21:45.436Z,0.00
2023-05-16T00:22:45.417Z,0.00
2023-05-16T00:23:45.405Z,0.00
2023-05-16T00:24:45.414Z,0.00
2023-05-16T00:25:45.401Z,0.00
2023-05-16T00:26:45.380Z,0.00
2023-05-16T00:27:45.373Z,0.00
2023-05-16T00:28:45.352Z,0.00
2023-05-16T00:29:45.350Z,0.00
2023-05-16T00:30:45.326Z,0.00
2023-05-16T00:31:45.339Z,0.00
2023-05-16T00:32:45.406Z,0.00
2023-05-16T00:33:45.300Z,0.00
2023-05-16T00:34:45.306Z,0.00
2023-05-16T00:35:45.274Z,0.00
2023-05-16T00:36:45.249Z,0.00
2023-05-16T00:37:45.231Z,0.00
2023-05-16T00:38:45.237Z,0.00
2023-05-16T00:39:45.229Z,0.00
2023-05-16T00:40:45.210Z,0.00
2023-05-16T00:41:45.196Z,0.00
2023-05-16T00:42:45.206Z,0.00
2023-05-16T00:43:45.190Z,0.00
2023-05-16T00:44:45.177Z,0.00
2023-05-16T00:45:45.161Z,0.00
2023-05-16T00:46:45.266Z,0.00
2023-05-16T00:47:45.141Z,0.00
2023-05-16T00:48:45.152Z,0.00
2023-05-16T00:49:45.114Z,0.00
2023-05-16T00:50:45.113Z,0.00
2023-05-16T00:51:45.098Z,0.00
2023-05-16T00:52:45.071Z,0.00
2023-05-16T00:53:45.056Z,0.00
2023-05-16T00:54:45.064Z,0.00
2023-05-16T00:55:45.049Z,0.00
2023-05-16T00:56:45.046Z,0.00
2023-05-16T00:57:45.032Z,0.00
2023-05-16T00:58:45.043Z,0.00
2023-05-16T00:59:44.994Z,0.00
2023-05-16T01:00:47.163Z,0.00
2023-05-16T01:01:45.053Z,0.00
2023-05-16T01:02:45.006Z,0.00
2023-05-16T01:03:45.028Z,0.00
2023-05-16T01:04:44.955Z,0.00
2023-05-16T01:05:44.932Z,0.00
2023-05-16T01:06:44.926Z,0.00
2023-05-16T01:07:44.913Z,0.00
2023-05-16T01:08:44.910Z,0.00
2023-05-16T01:09:44.901Z,0.00
2023-05-16T01:10:44.872Z,0.00
2023-05-16T01:11:44.870Z,0.00
2023-05-16T01:12:44.844Z,0.00
2023-05-16T01:13:44.840Z,0.00
2023-05-16T01:14:44.826Z,0.00
2023-05-16T01:15:44.836Z,0.00
2023-05-16T01:16:44.806Z,0.00
2023-05-16T01:17:44.873Z,0.00
2023-05-16T01:18:44.819Z,0.00
2023-05-16T01:19:44.769Z,0.00
2023-05-16T01:20:44.780Z,0.00
2023-05-16T01:21:44.735Z,0.00
2023-05-16T01:22:44.731Z,0.00
2023-05-16T01:23:44.733Z,0.00
2023-05-16T01:24:44.697Z,0.00
2023-05-16T01:25:44.685Z,0.00
2023-05-16T01:26:44.676Z,0.00
2023-05-16T01:27:44.676Z,0.00
2023-05-16T01:28:44.661Z,0.00
2023-05-16T01:29:44.637Z,0.00
2023-05-16T01:30:44.654Z,0.00
2023-05-16T01:31:44.645Z,0.00
2023-05-16T01:32:44.791Z,0.00
2023-05-16T01:33:44.593Z,0.00
2023-05-16T01:34:44.592Z,0.00
2023-05-16T01:35:44.570Z,0.00
2023-05-16T01:36:44.589Z,0.00
2023-05-16T01:37:44.582Z,0.00
2023-05-16T01:38:44.548Z,0.00
2023-05-16T01:39:44.567Z,0.00
2023-05-16T01:40:44.535Z,0.00
2023-05-16T01:41:44.507Z,0.00
2023-05-16T01:42:44.508Z,0.00
2023-05-16T01:43:44.495Z,0.00
2023-05-16T01:44:44.498Z,0.00
2023-05-16T01:45:44.462Z,0.00
2023-05-16T01:46:44.504Z,0.00
2023-05-16T01:47:44.464Z,0.00
2023-05-16T01:48:44.434Z,0.00
2023-05-16T01:49:44.432Z,0.00
2023-05-16T01:50:44.412Z,0.00
2023-05-16T01:51:44.405Z,0.00
2023-05-16T01:52:44.398Z,0.00
2023-05-16T01:53:44.387Z,0.00
2023-05-16T01:54:44.375Z,0.00
2023-05-16T01:55:44.362Z,0.00
2023-05-16T01:56:44.374Z,0.00
2023-05-16T01:57:44.338Z,0.00
2023-05-16T01:58:44.317Z,0.00
2023-05-16T01:59:44.311Z,0.00
2023-05-16T02:00:44.346Z,0.00
2023-05-16T02:01:44.318Z,0.00
2023-05-16T02:02:44.315Z,0.00
2023-05-16T02:03:44.325Z,0.00
2023-05-16T02:04:44.248Z,0.00
2023-05-16T02:05:44.371Z,0.00
2023-05-16T02:06:44.230Z,0.00
2023-05-16T02:07:44.233Z,0.00
2023-05-16T02:08:44.210Z,0.00
2023-05-16T02:09:44.209Z,0.00
2023-05-16T02:10:44.190Z,0.00
2023-05-16T02:11:44.166Z,0.00
2023-05-16T02:12:44.155Z,0.00
2023-05-16T02:13:44.139Z,0.00
2023-05-16T02:14:44.168Z,0.00
2023-05-16T02:15:44.133Z,0.00
2023-05-16T02:16:44.166Z,0.00
2023-05-16T02:17:44.141Z,0.00
2023-05-16T02:18:44.155Z,0.00
2023-05-16T02:19:44.088Z,0.00
2023-05-16T02:20:44.086Z,0.00
2023-05-16T02:21:44.070Z,0.00
2023-05-16T02:22:44.066Z,0.00
2023-05-16T02:23:44.032Z,0.00
2023-05-16T02:24:44.035Z,0.00
2023-05-16T02:25:44.067Z,0.00
2023-05-16T02:26:44.013Z,0.00
2023-05-16T02:27:43.986Z,0.00
2023-05-16T02:28:43.981Z,0.00
2023-05-16T02:29:43.982Z,0.00
2023-05-16T02:30:43.996Z,0.00
2023-05-16T02:31:43.955Z,0.00
2023-05-16T02:32:43.950Z,0.00
2023-05-16T02:33:43.912Z,0.00
2023-05-16T02:34:43.909Z,0.00
2023-05-16T02:35:43.910Z,0.00
2023-05-16T02:36:43.886Z,0.00
2023-05-16T02:37:43.874Z,0.00
2023-05-16T02:38:43.856Z,0.00
2023-05-16T02:39:43.858Z,0.00
2023-05-16T02:40:43.895Z,0.00
2023-05-16T02:41:43.852Z,0.00
2023-05-16T02:42:43.861Z,0.00
2023-05-16T02:43:45.476Z,0.00
2023-05-16T02:44:43.811Z,0.00
2023-05-16T02:45:43.802Z,0.00
2023-05-16T02:46:43.819Z,0.00
2023-05-16T02:47:43.823Z,0.00
2023-05-16T02:48:43.758Z,0.00
2023-05-16T02:49:43.764Z,0.00
2023-05-16T02:50:43.737Z,0.00
2023-05-16T02:51:43.724Z,0.00
2023-05-16T02:52:43.724Z,0.00
2023-05-16T02:53:43.696Z,0.00
2023-05-16T02:54:43.892Z,0.00
2023-05-16T02:55:43.686Z,0.00
2023-05-16T02:56:43.665Z,0.00
2023-05-16T02:57:43.658Z,0.00
2023-05-16T02:58:43.659Z,0.00
2023-05-16T02:59:43.633Z,0.00
2023-05-16T03:00:43.627Z,0.00
2023-05-16T03:01:43.725Z,0.00
2023-05-16T03:02:43.682Z,0.00
2023-05-16T03:03:43.660Z,0.00
2023-05-16T03:04:43.601Z,0.00
2023-05-16T03:05:43.587Z,0.00
2023-05-16T03:06:43.597Z,0.00
2023-05-16T03:07:43.569Z,0.00
2023-05-16T03:08:43.545Z,0.00
2023-05-16T03:09:43.538Z,0.00
2023-05-16T03:10:43.513Z,0.00
2023-05-16T03:11:43.513Z,0.00
2023-05-16T03:12:43.493Z,0.00
2023-05-16T03:13:43.476Z,0.00
2023-05-16T03:14:43.452Z,0.00
2023-05-16T03:15:43.476Z,0.00
2023-05-16T03:16:43.629Z,0.00
2023-05-16T03:17:43.433Z,0.00
2023-05-16T03:18:43.428Z,0.00
2023-05-16T03:19:43.406Z,0.00
2023-05-16T03:20:43.411Z,0.00
2023-05-16T03:21:43.402Z,0.00
2023-05-16T03:22:43.372Z,0.00
2023-05-16T03:23:43.372Z,0.00
2023-05-16T03:24:43.432Z,0.00
2023-05-16T03:25:43.340Z,4.00
2023-05-16T03:26:43.335Z,4.00
2023-05-16T03:27:43.320Z,0.00
2023-05-16T03:28:43.312Z,0.00
2023-05-16T03:29:43.278Z,4.00
2023-05-16T03:30:43.281Z,4.00
2023-05-16T03:31:43.303Z,4.00
2023-05-16T03:32:43.280Z,4.00
2023-05-16T03:33:43.250Z,4.00
2023-05-16T03:34:43.256Z,4.00
2023-05-16T03:35:43.226Z,4.00
2023-05-16T03:36:43.201Z,8.00
2023-05-16T03:37:43.220Z,4.00
2023-05-16T03:38:43.190Z,8.00
2023-05-16T03:39:43.210Z,8.00
2023-05-16T03:40:43.177Z,8.00
2023-05-16T03:41:43.162Z,8.00
2023-05-16T03:42:43.160Z,8.00
2023-05-16T03:43:43.141Z,8.00
2023-05-16T03:44:43.138Z,8.00
2023-05-16T03:45:43.189Z,8.00
2023-05-16T03:46:43.119Z,8.00
2023-05-16T03:47:43.139Z,8.00
2023-05-16T03:48:43.094Z,8.00
2023-05-16T03:49:43.090Z,8.00
2023-05-16T03:50:43.067Z,8.00
2023-05-16T03:51:43.038Z,12.00
2023-05-16T03:52:43.018Z,16.00
2023-05-16T03:53:43.016Z,20.00
2023-05-16T03:54:43.012Z,16.00
2023-05-16T03:55:42.994Z,24.00
2023-05-16T03:56:42.991Z,28.00
2023-05-16T03:57:42.978Z,28.00
2023-05-16T03:58:42.977Z,36.00
2023-05-16T03:59:42.965Z,40.00
2023-05-16T04:00:42.946Z,48.00
2023-05-16T04:01:42.952Z,60.00
2023-05-16T04:02:42.999Z,68.00
2023-05-16T04:03:42.923Z,68.00
2023-05-16T04:04:42.922Z,68.00
2023-05-16T04:05:42.921Z,72.00
2023-05-16T04:06:42.889Z,72.00
2023-05-16T04:07:42.890Z,72.00
2023-05-16T04:08:42.863Z,76.00
2023-05-16T04:09:42.839Z,88.00
2023-05-16T04:10:42.828Z,104.00
2023-05-16T04:11:42.818Z,104.00
2023-05-16T04:12:42.830Z,104.00
2023-05-16T04:13:42.810Z,104.00
2023-05-16T04:14:42.796Z,116.00
2023-05-16T04:15:42.768Z,132.00
2023-05-16T04:16:42.799Z,152.00
2023-05-16T04:17:42.809Z,180.00
2023-05-16T04:18:42.752Z,180.00
2023-05-16T04:19:42.729Z,164.00
2023-05-16T04:20:42.701Z,144.00
2023-05-16T04:21:42.704Z,144.00
2023-05-16T04:22:42.708Z,160.00
2023-05-16T04:23:42.707Z,180.00
2023-05-16T04:24:42.675Z,184.00
2023-05-16T04:25:42.671Z,188.00
2023-05-16T04:26:42.652Z,196.00
2023-05-16T04:27:42.637Z,188.00
2023-05-16T04:28:42.637Z,160.00
2023-05-16T04:29:42.623Z,140.00
2023-05-16T04:30:42.616Z,128.00
2023-05-16T04:31:42.649Z,116.00
2023-05-16T04:32:42.624Z,120.00
2023-05-16T04:33:42.585Z,128.00
2023-05-16T04:34:42.551Z,144.00
2023-05-16T04:35:42.551Z,160.00
2023-05-16T04:36:42.529Z,176.00
2023-05-16T04:37:42.529Z,204.00
2023-05-16T04:38:42.516Z,236.00
2023-05-16T04:39:42.512Z,280.00
2023-05-16T04:40:42.493Z,340.00
2023-05-16T04:41:42.475Z,384.00
2023-05-16T04:42:42.479Z,396.00
2023-05-16T04:43:42.476Z,396.00
2023-05-16T04:44:42.449Z,436.00
2023-05-16T04:45:42.443Z,476.00
2023-05-16T04:46:42.530Z,496.00
2023-05-16T04:47:42.479Z,528.00
2023-05-16T04:48:42.406Z,560.00
2023-05-16T04:49:42.390Z,572.00
2023-05-16T04:50:42.386Z,596.00
2023-05-16T04:51:42.371Z,608.00
2023-05-16T04:52:42.394Z,620.00
2023-05-16T04:53:42.342Z,640.00
2023-05-16T04:54:42.328Z,660.00
2023-05-16T04:55:42.324Z,672.00
2023-05-16T04:56:42.304Z,676.00
2023-05-16T04:57:42.291Z,716.00
2023-05-16T04:58:42.996Z,776.00
2023-05-16T04:59:42.296Z,824.00
2023-05-16T05:00:42.248Z,844.00
2023-05-16T05:01:42.349Z,832.00
2023-05-16T05:02:42.254Z,808.00
2023-05-16T05:03:42.242Z,796.00
2023-05-16T05:04:42.242Z,796.00
2023-05-16T05:05:42.282Z,732.00
2023-05-16T05:06:42.209Z,636.00
2023-05-16T05:07:42.180Z,672.00
2023-05-16T05:08:42.171Z,692.00
2023-05-16T05:09:42.163Z,672.00
2023-05-16T05:10:42.144Z,628.00
2023-05-16T05:11:42.159Z,608.00
2023-05-16T05:12:42.116Z,624.00
2023-05-16T05:13:42.129Z,648.00
2023-05-16T05:14:42.088Z,648.00
2023-05-16T05:15:42.126Z,656.00
2023-05-16T05:16:42.085Z,656.00
2023-05-16T05:17:42.172Z,636.00
2023-05-16T05:18:42.184Z,604.00
2023-05-16T05:19:42.116Z,568.00
2023-05-16T05:20:42.040Z,524.00
2023-05-16T05:21:42.042Z,476.00
2023-05-16T05:22:42.028Z,436.00
2023-05-16T05:23:42.022Z,400.00
2023-05-16T05:24:41.987Z,364.00
2023-05-16T05:25:42.133Z,360.00
2023-05-16T05:26:41.966Z,384.00
2023-05-16T05:27:41.974Z,388.00
2023-05-16T05:28:47.762Z,384.00
2023-05-16T05:29:41.939Z,388.00
2023-05-16T05:30:43.211Z,400.00
2023-05-16T05:31:41.948Z,380.00
2023-05-16T05:32:41.896Z,356.00
2023-05-16T05:33:41.891Z,336.00
2023-05-16T05:34:41.880Z,324.00
2023-05-16T05:35:41.878Z,316.00
2023-05-16T05:36:41.859Z,324.00
2023-05-16T05:37:41.864Z,340.00
2023-05-16T05:38:41.824Z,348.00
2023-05-16T05:39:41.821Z,376.00
2023-05-16T05:40:41.806Z,412.00
2023-05-16T05:41:41.810Z,468.00
2023-05-16T05:42:41.774Z,536.00
2023-05-16T05:43:41.774Z,616.00
2023-05-16T05:44:41.763Z,644.00
2023-05-16T05:45:41.781Z,736.00
2023-05-16T05:46:41.740Z,896.00
2023-05-16T05:47:41.817Z,988.00
2023-05-16T05:48:41.710Z,1132.00
2023-05-16T05:49:41.710Z,1156.00
2023-05-16T05:50:41.695Z,1212.00
2023-05-16T05:51:41.732Z,1248.00
2023-05-16T05:52:41.662Z,1276.00
2023-05-16T05:53:41.652Z,1284.00
2023-05-16T05:54:41.645Z,1340.00
2023-05-16T05:55:41.649Z,1408.00
2023-05-16T05:56:41.648Z,1448.00
2023-05-16T05:57:41.618Z,1452.00
2023-05-16T05:58:41.611Z,1488.00
2023-05-16T05:59:41.589Z,1556.00
2023-05-16T06:00:41.592Z,1624.00
2023-05-16T06:01:41.611Z,1600.00
2023-05-16T06:02:41.706Z,1520.00
2023-05-16T06:03:41.562Z,1508.00
2023-05-16T06:04:41.544Z,1556.00
2023-05-16T06:05:41.573Z,1660.00
2023-05-16T06:06:41.517Z,1656.00
2023-05-16T06:07:41.500Z,1540.00
2023-05-16T06:08:41.514Z,1412.00
2023-05-16T06:09:41.470Z,1336.00
2023-05-16T06:10:41.474Z,1324.00
2023-05-16T06:11:41.471Z,1380.00
2023-05-16T06:12:41.454Z,1508.00
2023-05-16T06:13:41.435Z,1584.00
2023-05-16T06:14:41.452Z,1616.00
2023-05-16T06:15:41.417Z,1624.00
2023-05-16T06:16:41.426Z,1656.00
2023-05-16T06:17:41.425Z,1688.00
2023-05-16T06:18:41.433Z,1716.00
2023-05-16T06:19:41.380Z,1704.00
2023-05-16T06:20:41.364Z,1708.00
2023-05-16T06:21:41.358Z,1728.00
2023-05-16T06:22:41.363Z,1752.00
2023-05-16T06:23:41.334Z,1752.00
2023-05-16T06:24:41.313Z,1744.00
2023-05-16T06:25:41.295Z,1744.00
2023-05-16T06:26:41.296Z,1752.00
2023-05-16T06:27:41.303Z,1756.00
2023-05-16T06:28:41.276Z,1744.00
2023-05-16T06:29:41.245Z,1728.00
2023-05-16T06:30:41.248Z,1716.00
2023-05-16T06:31:41.251Z,1696.00
2023-05-16T06:32:41.261Z,1688.00
2023-05-16T06:33:41.222Z,1672.00
2023-05-16T06:34:41.196Z,1664.00
2023-05-16T06:35:41.198Z,1656.00
2023-05-16T06:36:41.186Z,1652.00
2023-05-16T06:37:42.934Z,1640.00
2023-05-16T06:38:41.153Z,1652.00
2023-05-16T06:39:41.153Z,1660.00
2023-05-16T06:40:41.136Z,1676.00
2023-05-16T06:41:41.144Z,1680.00
2023-05-16T06:42:41.458Z,1676.00
2023-05-16T06:43:41.121Z,1692.00
2023-05-16T06:44:41.101Z,1692.00
2023-05-16T06:45:41.124Z,1684.00
2023-05-16T06:46:41.098Z,1676.00
2023-05-16T06:47:41.142Z,1636.00
2023-05-16T06:48:41.036Z,1612.00
2023-05-16T06:49:41.046Z,1616.00
2023-05-16T06:50:41.024Z,1608.00
2023-05-16T06:51:41.002Z,1596.00
2023-05-16T06:52:41.008Z,1608.00
2023-05-16T06:53:40.975Z,1616.00
2023-05-16T06:54:40.977Z,1636.00
2023-05-16T06:55:40.975Z,1648.00
2023-05-16T06:56:40.936Z,1640.00
2023-05-16T06:57:40.958Z,1644.00
2023-05-16T06:58:40.931Z,1648.00
2023-05-16T06:59:40.942Z,1664.00
2023-05-16T07:00:40.902Z,1664.00
2023-05-16T07:01:40.923Z,1692.00
2023-05-16T07:02:41.004Z,1704.00
2023-05-16T07:03:40.930Z,1716.00
2023-05-16T07:04:40.875Z,1728.00
2023-05-16T07:05:40.868Z,1732.00
2023-05-16T07:06:40.844Z,1732.00
2023-05-16T07:07:40.832Z,1732.00
2023-05-16T07:08:40.806Z,1704.00
2023-05-16T07:09:40.826Z,1684.00
2023-05-16T07:10:40.790Z,1788.00
2023-05-16T07:11:40.799Z,1908.00
2023-05-16T07:12:40.773Z,2028.00
2023-05-16T07:13:40.773Z,2108.00
2023-05-16T07:14:40.769Z,2252.00
2023-05-16T07:15:40.741Z,2408.00
2023-05-16T07:16:40.830Z,2524.00
2023-05-16T07:17:40.772Z,2604.00
2023-05-16T07:18:40.762Z,2784.00
2023-05-16T07:19:40.694Z,2948.00
2023-05-16T07:20:40.722Z,3004.00
2023-05-16T07:21:40.662Z,2928.00
2023-05-16T07:22:40.680Z,2704.00
2023-05-16T07:23:40.635Z,2628.00
2023-05-16T07:24:40.657Z,2744.00
2023-05-16T07:25:40.619Z,2660.00
2023-05-16T07:26:40.599Z,2596.00
2023-05-16T07:27:40.591Z,2600.00
2023-05-16T07:28:40.619Z,2724.00
2023-05-16T07:29:40.567Z,3140.00
2023-05-16T07:30:40.560Z,3584.00
2023-05-16T07:31:40.682Z,3876.00
2023-05-16T07:32:40.650Z,4372.00
2023-05-16T07:33:40.533Z,4676.00
2023-05-16T07:34:40.525Z,4616.00
2023-05-16T07:35:40.516Z,4368.00
2023-05-16T07:36:40.503Z,4388.00
2023-05-16T07:37:40.573Z,4780.00
2023-05-16T07:38:40.500Z,5088.00
2023-05-16T07:39:40.449Z,4840.00
2023-05-16T07:40:40.481Z,4224.00
2023-05-16T07:41:40.437Z,3972.00
2023-05-16T07:42:40.451Z,3996.00
2023-05-16T07:43:40.678Z,3972.00
2023-05-16T07:44:40.403Z,3812.00
2023-05-16T07:45:40.472Z,3776.00
2023-05-16T07:46:40.431Z,3812.00
2023-05-16T07:47:40.433Z,3692.00
2023-05-16T07:48:40.371Z,3656.00
2023-05-16T07:49:40.347Z,3960.00
2023-05-16T07:50:40.346Z,4492.00
2023-05-16T07:51:40.319Z,4744.00
2023-05-16T07:52:40.322Z,4444.00
2023-05-16T07:53:40.324Z,4336.00
2023-05-16T07:54:40.286Z,4264.00
2023-05-16T07:55:40.309Z,4024.00
2023-05-16T07:56:40.288Z,3736.00
2023-05-16T07:57:40.239Z,3468.00
2023-05-16T07:58:40.254Z,3256.00
2023-05-16T07:59:40.272Z,2832.00
2023-05-16T08:00:40.218Z,2484.00
2023-05-16T08:01:40.214Z,2408.00
2023-05-16T08:02:40.309Z,2376.00
2023-05-16T08:03:40.275Z,2364.00
2023-05-16T08:04:40.171Z,2408.00
2023-05-16T08:05:40.266Z,2472.00
2023-05-16T08:06:40.146Z,2368.00
2023-05-16T08:07:40.136Z,2224.00
2023-05-16T08:08:40.131Z,2324.00
2023-05-16T08:09:40.131Z,2404.00
2023-05-16T08:10:40.135Z,2564.00
2023-05-16T08:11:40.102Z,2560.00
2023-05-16T08:12:40.095Z,2476.00
2023-05-16T08:13:40.077Z,2624.00
2023-05-16T08:14:40.079Z,2680.00
2023-05-16T08:15:40.077Z,2672.00
2023-05-16T08:16:40.147Z,2792.00
2023-05-16T08:17:40.092Z,2940.00
2023-05-16T08:18:40.075Z,3096.00
2023-05-16T08:19:40.020Z,3100.00
2023-05-16T08:20:40.011Z,3024.00
2023-05-16T08:21:39.990Z,2928.00
2023-05-16T08:22:39.983Z,2896.00
2023-05-16T08:23:39.968Z,2972.00
2023-05-16T08:24:39.952Z,3048.00
2023-05-16T08:25:39.949Z,3116.00
2023-05-16T08:26:39.937Z,3220.00
2023-05-16T08:27:39.916Z,3112.00
2023-05-16T08:28:39.896Z,2996.00
2023-05-16T08:29:39.896Z,2776.00
2023-05-16T08:30:42.436Z,2848.00
2023-05-16T08:31:39.918Z,2948.00
2023-05-16T08:32:39.888Z,2952.00
2023-05-16T08:33:39.845Z,3072.00
2023-05-16T08:34:39.863Z,3284.00
2023-05-16T08:35:39.821Z,3264.00
2023-05-16T08:36:39.823Z,3220.00
2023-05-16T08:37:39.804Z,3272.00
2023-05-16T08:38:39.805Z,3288.00
2023-05-16T08:39:39.794Z,3388.00
2023-05-16T08:40:39.788Z,3396.00
2023-05-16T08:41:39.774Z,3372.00
2023-05-16T08:42:39.753Z,3428.00
2023-05-16T08:43:39.724Z,3312.00
2023-05-16T08:44:39.731Z,3320.00
2023-05-16T08:45:39.707Z,3028.00
2023-05-16T08:46:39.866Z,2688.00
2023-05-16T08:47:39.702Z,2816.00
2023-05-16T08:48:39.683Z,3352.00
2023-05-16T08:49:39.677Z,3728.00
2023-05-16T08:50:39.671Z,3884.00
2023-05-16T08:51:39.656Z,3788.00
2023-05-16T08:52:39.703Z,3728.00
2023-05-16T08:53:39.632Z,3612.00
2023-05-16T08:54:39.619Z,3580.00
2023-05-16T08:55:39.606Z,3684.00
2023-05-16T08:56:39.636Z,3760.00
2023-05-16T08:57:39.579Z,3776.00
2023-05-16T08:58:39.583Z,3644.00
2023-05-16T08:59:39.577Z,3416.00
2023-05-16T09:00:39.602Z,3224.00
2023-05-16T09:01:39.576Z,2960.00
2023-05-16T09:02:39.564Z,2688.00
2023-05-16T09:03:39.566Z,2676.00
2023-05-16T09:04:39.500Z,3084.00
2023-05-16T09:05:39.483Z,3172.00
2023-05-16T09:06:39.468Z,2916.00
2023-05-16T09:07:39.454Z,2544.00
2023-05-16T09:08:39.461Z,2392.00
2023-05-16T09:09:39.483Z,2352.00
2023-05-16T09:10:39.425Z,2376.00
2023-05-16T09:11:39.417Z,2440.00
2023-05-16T09:12:39.464Z,2464.00
2023-05-16T09:13:39.401Z,2292.00
2023-05-16T09:14:39.413Z,2172.00
2023-05-16T09:15:39.386Z,2044.00
2023-05-16T09:16:39.395Z,1844.00
2023-05-16T09:17:41.685Z,1724.00
2023-05-16T09:18:39.457Z,1828.00
2023-05-16T09:19:39.535Z,2264.00
2023-05-16T09:20:39.321Z,2724.00
2023-05-16T09:21:39.295Z,2852.00
2023-05-16T09:22:39.312Z,2664.00
2023-05-16T09:23:39.340Z,2480.00
2023-05-16T09:24:39.312Z,2448.00
2023-05-16T09:25:39.808Z,2944.00
2023-05-16T09:26:39.596Z,3732.00
2023-05-16T09:27:39.225Z,3924.00
2023-05-16T09:28:39.237Z,3500.00
2023-05-16T09:29:39.230Z,2796.00
2023-05-16T09:30:39.214Z,2408.00
2023-05-16T09:31:39.240Z,2160.00
2023-05-16T09:32:39.216Z,2208.00
2023-05-16T09:33:39.177Z,2344.00
2023-05-16T09:34:39.186Z,2676.00
2023-05-16T09:35:45.474Z,3196.00
2023-05-16T09:36:40.161Z,3484.00
2023-05-16T09:37:39.139Z,3464.00
2023-05-16T09:38:39.138Z,3312.00
2023-05-16T09:39:39.090Z,3256.00
2023-05-16T09:40:39.109Z,3400.00
2023-05-16T09:41:39.091Z,3380.00
2023-05-16T09:42:39.063Z,3136.00
2023-05-16T09:43:40.308Z,2876.00
2023-05-16T09:44:39.061Z,2640.00
2023-05-16T09:45:39.043Z,2400.00
2023-05-16T09:46:39.068Z,2324.00
2023-05-16T09:47:39.042Z,2488.00
2023-05-16T09:48:39.008Z,3008.00
2023-05-16T09:49:38.997Z,3444.00
2023-05-16T09:50:39.058Z,3448.00
2023-05-16T09:51:38.985Z,3580.00
2023-05-16T09:52:38.952Z,3744.00
2023-05-16T09:53:38.938Z,3140.00
2023-05-16T09:54:38.943Z,2832.00
2023-05-16T09:55:38.922Z,3068.00
2023-05-16T09:56:38.907Z,3712.00
2023-05-16T09:57:38.902Z,3864.00
2023-05-16T09:58:38.905Z,3696.00
2023-05-16T09:59:38.880Z,3692.00
2023-05-16T10:00:38.882Z,3852.00
2023-05-16T10:01:38.875Z,4124.00
2023-05-16T10:02:38.945Z,3904.00
2023-05-16T10:03:39.060Z,3104.00
2023-05-16T10:04:38.844Z,2680.00
2023-05-16T10:05:38.810Z,2476.00
2023-05-16T10:06:38.787Z,2544.00
2023-05-16T10:07:38.801Z,2468.00
2023-05-16T10:08:38.787Z,2600.00
2023-05-16T10:09:38.765Z,2908.00
2023-05-16T10:10:38.765Z,3140.00
2023-05-16T10:11:38.746Z,3100.00
2023-05-16T10:12:38.747Z,2956.00
2023-05-16T10:13:38.737Z,3020.00
2023-05-16T10:14:38.714Z,3148.00
2023-05-16T10:15:38.700Z,3148.00
2023-05-16T10:16:38.709Z,3192.00
2023-05-16T10:17:38.729Z,3216.00
2023-05-16T10:18:38.694Z,2828.00
2023-05-16T10:19:38.675Z,2700.00
2023-05-16T10:20:38.636Z,2784.00
2023-05-16T10:21:38.664Z,2808.00
2023-05-16T10:22:38.605Z,2832.00
2023-05-16T10:23:38.592Z,2548.00
2023-05-16T10:24:38.586Z,2464.00
2023-05-16T10:25:38.604Z,2944.00
2023-05-16T10:26:38.568Z,3540.00
2023-05-16T10:27:38.553Z,3976.00
2023-05-16T10:28:38.604Z,3976.00
2023-05-16T10:29:50.276Z,4096.00
2023-05-16T10:30:38.517Z,3976.00
2023-05-16T10:31:38.539Z,3384.00
2023-05-16T10:32:41.234Z,3040.00
2023-05-16T10:33:38.494Z,3108.00
2023-05-16T10:34:38.495Z,3496.00
2023-05-16T10:35:38.478Z,4296.00
2023-05-16T10:36:38.460Z,5236.00
2023-05-16T10:37:38.456Z,5664.00
2023-05-16T10:38:38.441Z,5652.00
2023-05-16T10:39:38.431Z,5656.00
2023-05-16T10:40:38.414Z,5276.00
2023-05-16T10:41:38.393Z,4720.00
2023-05-16T10:42:38.377Z,4144.00
2023-05-16T10:43:38.360Z,3684.00
2023-05-16T10:44:38.390Z,3668.00
2023-05-16T10:45:38.448Z,3416.00
2023-05-16T10:46:38.461Z,2904.00
2023-05-16T10:47:38.361Z,2680.00
2023-05-16T10:48:38.315Z,2672.00
2023-05-16T10:49:38.305Z,2584.00
2023-05-16T10:50:38.303Z,2444.00
2023-05-16T10:51:38.310Z,2396.00
2023-05-16T10:52:38.271Z,2420.00
2023-05-16T10:53:38.248Z,2472.00
2023-05-16T10:54:38.262Z,2568.00
2023-05-16T10:55:38.242Z,2664.00
2023-05-16T10:56:38.242Z,2660.00
2023-05-16T10:57:38.214Z,2508.00
2023-05-16T10:58:38.207Z,2472.00
2023-05-16T10:59:38.184Z,2564.00
2023-05-16T11:00:38.180Z,2900.00
2023-05-16T11:01:38.206Z,3516.00
2023-05-16T11:02:38.214Z,4084.00
2023-05-16T11:03:38.273Z,4356.00
2023-05-16T11:04:38.143Z,4572.00
2023-05-16T11:05:38.132Z,4264.00
2023-05-16T11:06:38.109Z,3940.00
2023-05-16T11:07:38.110Z,3776.00
2023-05-16T11:08:38.093Z,3576.00
2023-05-16T11:09:38.083Z,3128.00
2023-05-16T11:10:38.081Z,2640.00
2023-05-16T11:11:38.058Z,2412.00
2023-05-16T11:12:38.067Z,2392.00
2023-05-16T11:13:38.038Z,2452.00
2023-05-16T11:14:38.038Z,2584.00
2023-05-16T11:15:38.013Z,2696.00
2023-05-16T11:16:38.059Z,2772.00
2023-05-16T11:17:39.982Z,2816.00
2023-05-16T11:18:38.019Z,2832.00
2023-05-16T11:19:37.949Z,3068.00
2023-05-16T11:20:37.965Z,3476.00
2023-05-16T11:21:37.947Z,3668.00
2023-05-16T11:22:37.924Z,3616.00
2023-05-16T11:23:37.907Z,3524.00
2023-05-16T11:24:37.926Z,3548.00
2023-05-16T11:25:37.915Z,3492.00
2023-05-16T11:26:37.890Z,3376.00
2023-05-16T11:27:37.867Z,3248.00
2023-05-16T11:28:37.871Z,3144.00
2023-05-16T11:29:37.858Z,3032.00
2023-05-16T11:30:37.858Z,3144.00
2023-05-16T11:31:37.882Z,3384.00
2023-05-16T11:32:37.987Z,3440.00
2023-05-16T11:33:37.803Z,3232.00
2023-05-16T11:34:37.806Z,3388.00
2023-05-16T11:35:37.793Z,3648.00
2023-05-16T11:36:37.764Z,3548.00
2023-05-16T11:37:37.839Z,3716.00
2023-05-16T11:38:37.762Z,4076.00
2023-05-16T11:39:37.834Z,3988.00
2023-05-16T11:40:37.753Z,3380.00
2023-05-16T11:41:37.726Z,3052.00
2023-05-16T11:42:37.718Z,2792.00
2023-05-16T11:43:37.692Z,2764.00
2023-05-16T11:44:37.691Z,2992.00
2023-05-16T11:45:37.691Z,3324.00
2023-05-16T11:46:37.698Z,3448.00
2023-05-16T11:47:37.717Z,3572.00
2023-05-16T11:48:37.787Z,3372.00
2023-05-16T11:49:37.631Z,2720.00
2023-05-16T11:50:37.619Z,2120.00
2023-05-16T11:51:37.619Z,2020.00
2023-05-16T11:52:37.610Z,2356.00
2023-05-16T11:53:37.581Z,2324.00
2023-05-16T11:54:37.592Z,2220.00
2023-05-16T11:55:42.093Z,2336.00
2023-05-16T11:56:37.566Z,2612.00
2023-05-16T11:57:37.568Z,2872.00
2023-05-16T11:58:37.542Z,2932.00
2023-05-16T11:59:37.598Z,2684.00
2023-05-16T12:00:37.505Z,2368.00
2023-05-16T12:01:37.503Z,2172.00
2023-05-16T12:02:37.638Z,2072.00
2023-05-16T12:03:38.648Z,2100.00
2023-05-16T12:04:37.516Z,2232.00
2023-05-16T12:05:37.569Z,2536.00
2023-05-16T12:06:37.432Z,2960.00
2023-05-16T12:07:37.431Z,3384.00
2023-05-16T12:08:37.403Z,3672.00
2023-05-16T12:09:37.389Z,3868.00
2023-05-16T12:10:37.380Z,4028.00
2023-05-16T12:11:37.398Z,4308.00
2023-05-16T12:12:37.358Z,4884.00
2023-05-16T12:13:37.365Z,5072.00
2023-05-16T12:14:37.342Z,4872.00
2023-05-16T12:15:37.337Z,4608.00
2023-05-16T12:16:37.368Z,4380.00
2023-05-16T12:17:37.379Z,4288.00
2023-05-16T12:18:37.386Z,4368.00
2023-05-16T12:19:37.283Z,4780.00
2023-05-16T12:20:37.295Z,5680.00
2023-05-16T12:21:37.278Z,6340.00
2023-05-16T12:22:37.264Z,6468.00
2023-05-16T12:23:37.246Z,6408.00
2023-05-16T12:24:37.219Z,6468.00
2023-05-16T12:25:37.233Z,6812.00
2023-05-16T12:26:37.218Z,7912.00
2023-05-16T12:27:39.349Z,8324.00
2023-05-16T12:28:37.208Z,7360.00
2023-05-16T12:29:37.185Z,6416.00
2023-05-16T12:30:37.178Z,5756.00